Abington, Indiana
Current Conditions -  °F | °C
As of 6:53 PM on Monday 22 Dec 2014 (Local Time) from KMIE Reporting Station
Overcast Overcast  
Wind Chill: 36°   Ceiling: 8000
Heat Index: 40°   Visibility: 8mi
Dew Point: 36°   Wind: 6mph
Humidity: 86%   Direction: 110°ESE
Pressure: 29.77"   Gusts: NA
Location:  39.7862°N, 85.0229°W
Report Text: KMIE 222353Z 11005KT 8SM OVC080 04/02 A2977 RMK AO2 RAB2254E22 SLP083 P0000 60000 T00440022 10061 20039 57013
Loading
Personal Weather Stations






























Interactive Weather Map New forecast layout! Learn more

10-Day Weather Forecast

Advertisements
Track Severe Weather on mobile